sensor_id;sensor_type;location;lat;lon;timestamp;temperature;humidity
37984;DHT22;64625;50.882;4.376;2023-03-14T00:01:59;12.00;99.90
37984;DHT22;64625;50.882;4.376;2023-03-14T00:04:25;12.00;99.90
37984;DHT22;64625;50.882;4.376;2023-03-14T00:06:51;11.90;99.90
37984;DHT22;64625;50.882;4.376;2023-03-14T00:09:17;11.90;99.90
37984;DHT22;64625;50.882;4.376;2023-03-14T00:11:43;11.90;99.90
37984;DHT22;64625;50.882;4.376;2023-03-14T00:14:09;11.80;99.90
37984;DHT22;64625;50.882;4.376;2023-03-14T00:16:34;11.80;99.90
37984;DHT22;64625;50.882;4.376;2023-03-14T00:19:00;11.80;99.90
37984;DHT22;64625;50.882;4.376;2023-03-14T00:21:26;11.70;99.90
37984;DHT22;64625;50.882;4.376;2023-03-14T00:23:53;11.70;99.90
37984;DHT22;64625;50.882;4.376;2023-03-14T00:26:21;11.70;99.90
37984;DHT22;64625;50.882;4.376;2023-03-14T00:28:51;11.70;99.90
37984;DHT22;64625;50.882;4.376;2023-03-14T00:31:18;11.70;99.90
37984;DHT22;64625;50.882;4.376;2023-03-14T00:33:44;11.60;99.90
37984;DHT22;64625;50.882;4.376;2023-03-14T00:36:13;11.60;99.90
37984;DHT22;64625;50.882;4.376;2023-03-14T00:38:41;11.60;99.90
37984;DHT22;64625;50.882;4.376;2023-03-14T00:41:12;11.60;99.90
37984;DHT22;64625;50.882;4.376;2023-03-14T00:43:39;11.60;99.90
37984;DHT22;64625;50.882;4.376;2023-03-14T00:46:08;11.50;99.90
37984;DHT22;64625;50.882;4.376;2023-03-14T00:48:34;11.50;99.90
37984;DHT22;64625;50.882;4.376;2023-03-14T00:51:01;11.60;99.90
37984;DHT22;64625;50.882;4.376;2023-03-14T00:53:27;11.50;99.90
37984;DHT22;64625;50.882;4.376;2023-03-14T00:55:53;11.50;99.90
37984;DHT22;64625;50.882;4.376;2023-03-14T00:58:19;11.50;99.90
37984;DHT22;64625;50.882;4.376;2023-03-14T01:00:45;11.50;99.90
37984;DHT22;64625;50.882;4.376;2023-03-14T01:03:13;11.50;99.90
37984;DHT22;64625;50.882;4.376;2023-03-14T01:05:40;11.50;99.90
37984;DHT22;64625;50.882;4.376;2023-03-14T01:08:06;11.40;99.90
37984;DHT22;64625;50.882;4.376;2023-03-14T01:10:41;11.40;99.90
37984;DHT22;64625;50.882;4.376;2023-03-14T01:13:08;11.40;99.90
37984;DHT22;64625;50.882;4.376;2023-03-14T01:15:35;11.40;99.90
37984;DHT22;64625;50.882;4.376;2023-03-14T01:18:01;11.40;99.90
37984;DHT22;64625;50.882;4.376;2023-03-14T01:20:27;11.40;99.90
37984;DHT22;64625;50.882;4.376;2023-03-14T01:22:53;11.40;99.90
37984;DHT22;64625;50.882;4.376;2023-03-14T01:25:19;11.40;99.90
37984;DHT22;64625;50.882;4.376;2023-03-14T01:27:45;11.40;99.90
37984;DHT22;64625;50.882;4.376;2023-03-14T01:30:11;11.40;99.90
37984;DHT22;64625;50.882;4.376;2023-03-14T01:32:38;11.30;99.90
37984;DHT22;64625;50.882;4.376;2023-03-14T01:35:05;11.30;99.90
37984;DHT22;64625;50.882;4.376;2023-03-14T01:37:30;11.30;99.90
37984;DHT22;64625;50.882;4.376;2023-03-14T01:39:56;11.30;99.90
37984;DHT22;64625;50.882;4.376;2023-03-14T01:42:22;11.30;99.90
37984;DHT22;64625;50.882;4.376;2023-03-14T01:47:13;11.30;99.90
37984;DHT22;64625;50.882;4.376;2023-03-14T01:49:39;11.20;99.90
37984;DHT22;64625;50.882;4.376;2023-03-14T01:52:29;11.20;99.90
37984;DHT22;64625;50.882;4.376;2023-03-14T01:55:03;11.20;99.90
37984;DHT22;64625;50.882;4.376;2023-03-14T01:57:35;11.10;99.90
37984;DHT22;64625;50.882;4.376;2023-03-14T02:00:21;11.10;99.90
37984;DHT22;64625;50.882;4.376;2023-03-14T02:02:50;11.10;99.90
37984;DHT22;64625;50.882;4.376;2023-03-14T02:05:24;11.10;99.90
37984;DHT22;64625;50.882;4.376;2023-03-14T02:07:56;11.10;99.90
37984;DHT22;64625;50.882;4.376;2023-03-14T02:10:29;11.10;99.90
37984;DHT22;64625;50.882;4.376;2023-03-14T02:12:56;11.10;99.90
37984;DHT22;64625;50.882;4.376;2023-03-14T02:15:25;11.10;99.90
37984;DHT22;64625;50.882;4.376;2023-03-14T02:17:51;11.10;99.90
37984;DHT22;64625;50.882;4.376;2023-03-14T02:20:31;11.00;99.90
37984;DHT22;64625;50.882;4.376;2023-03-14T02:23:00;11.00;99.90
37984;DHT22;64625;50.882;4.376;2023-03-14T02:28:01;10.90;99.90
37984;DHT22;64625;50.882;4.376;2023-03-14T02:30:29;10.90;99.90
37984;DHT22;64625;50.882;4.376;2023-03-14T02:33:08;10.90;99.90
37984;DHT22;64625;50.882;4.376;2023-03-14T02:36:00;10.80;99.90
37984;DHT22;64625;50.882;4.376;2023-03-14T02:38:45;10.70;99.90
37984;DHT22;64625;50.882;4.376;2023-03-14T02:41:12;10.70;99.90
37984;DHT22;64625;50.882;4.376;2023-03-14T02:43:39;10.70;99.90
37984;DHT22;64625;50.882;4.376;2023-03-14T02:46:05;10.60;99.90
37984;DHT22;64625;50.882;4.376;2023-03-14T02:48:45;10.60;99.90
37984;DHT22;64625;50.882;4.376;2023-03-14T02:51:13;10.60;99.90
37984;DHT22;64625;50.882;4.376;2023-03-14T02:53:40;10.60;99.90
37984;DHT22;64625;50.882;4.376;2023-03-14T02:56:07;10.50;99.90
37984;DHT22;64625;50.882;4.376;2023-03-14T02:58:34;10.50;99.90
37984;DHT22;64625;50.882;4.376;2023-03-14T03:01:00;10.50;99.90
37984;DHT22;64625;50.882;4.376;2023-03-14T03:03:26;10.50;99.90
37984;DHT22;64625;50.882;4.376;2023-03-14T03:05:54;10.50;99.90
37984;DHT22;64625;50.882;4.376;2023-03-14T03:08:22;10.50;99.90
37984;DHT22;64625;50.882;4.376;2023-03-14T03:10:49;10.50;99.90
37984;DHT22;64625;50.882;4.376;2023-03-14T03:13:18;10.50;99.90
37984;DHT22;64625;50.882;4.376;2023-03-14T03:15:44;10.50;99.90
37984;DHT22;64625;50.882;4.376;2023-03-14T03:18:10;10.50;99.90
37984;DHT22;64625;50.882;4.376;2023-03-14T03:20:36;10.50;99.90
37984;DHT22;64625;50.882;4.376;2023-03-14T03:23:09;10.50;99.90
37984;DHT22;64625;50.882;4.376;2023-03-14T03:25:38;10.50;99.90
37984;DHT22;64625;50.882;4.376;2023-03-14T03:30:44;10.50;99.90
37984;DHT22;64625;50.882;4.376;2023-03-14T03:33:11;10.50;99.90
37984;DHT22;64625;50.882;4.376;2023-03-14T03:35:48;10.50;99.90
37984;DHT22;64625;50.882;4.376;2023-03-14T03:38:15;10.50;99.90
37984;DHT22;64625;50.882;4.376;2023-03-14T03:40:41;10.50;99.90
37984;DHT22;64625;50.882;4.376;2023-03-14T03:43:08;10.50;99.90
37984;DHT22;64625;50.882;4.376;2023-03-14T03:45:34;10.50;99.90
37984;DHT22;64625;50.882;4.376;2023-03-14T03:48:00;10.50;99.90
37984;DHT22;64625;50.882;4.376;2023-03-14T03:50:26;10.50;99.90
37984;DHT22;64625;50.882;4.376;2023-03-14T03:52:51;10.50;99.90
37984;DHT22;64625;50.882;4.376;2023-03-14T03:55:17;10.50;99.90
37984;DHT22;64625;50.882;4.376;2023-03-14T03:57:43;10.50;99.90
37984;DHT22;64625;50.882;4.376;2023-03-14T04:00:11;10.50;99.90
37984;DHT22;64625;50.882;4.376;2023-03-14T04:02:38;10.50;99.90
37984;DHT22;64625;50.882;4.376;2023-03-14T04:05:04;10.50;99.90
37984;DHT22;64625;50.882;4.376;2023-03-14T04:07:32;10.50;99.90
37984;DHT22;64625;50.882;4.376;2023-03-14T04:09:58;10.50;99.90
37984;DHT22;64625;50.882;4.376;2023-03-14T04:12:23;10.50;99.90
37984;DHT22;64625;50.882;4.376;2023-03-14T04:14:49;10.50;99.90
37984;DHT22;64625;50.882;4.376;2023-03-14T04:17:15;10.60;99.90
37984;DHT22;64625;50.882;4.376;2023-03-14T04:19:41;10.60;99.90
37984;DHT22;64625;50.882;4.376;2023-03-14T04:22:08;10.60;99.90
37984;DHT22;64625;50.882;4.376;2023-03-14T04:24:34;10.60;99.90
37984;DHT22;64625;50.882;4.376;2023-03-14T04:27:00;10.60;99.90
37984;DHT22;64625;50.882;4.376;2023-03-14T04:29:26;10.60;99.90
37984;DHT22;64625;50.882;4.376;2023-03-14T04:31:52;10.60;99.90
37984;DHT22;64625;50.882;4.376;2023-03-14T04:34:17;10.60;99.90
37984;DHT22;64625;50.882;4.376;2023-03-14T04:36:43;10.60;99.90
37984;DHT22;64625;50.882;4.376;2023-03-14T04:39:09;10.60;99.90
37984;DHT22;64625;50.882;4.376;2023-03-14T04:41:34;10.60;99.90
37984;DHT22;64625;50.882;4.376;2023-03-14T04:44:00;10.60;99.90
37984;DHT22;64625;50.882;4.376;2023-03-14T04:46:26;10.60;99.90
37984;DHT22;64625;50.882;4.376;2023-03-14T04:48:52;10.60;99.90
37984;DHT22;64625;50.882;4.376;2023-03-14T04:51:17;10.60;99.90
37984;DHT22;64625;50.882;4.376;2023-03-14T04:53:43;10.60;99.90
37984;DHT22;64625;50.882;4.376;2023-03-14T04:56:09;10.70;99.90
37984;DHT22;64625;50.882;4.376;2023-03-14T04:58:35;10.70;99.90
37984;DHT22;64625;50.882;4.376;2023-03-14T05:01:06;10.70;99.90
37984;DHT22;64625;50.882;4.376;2023-03-14T05:03:32;10.70;99.90
37984;DHT22;64625;50.882;4.376;2023-03-14T05:05:58;10.70;99.90
37984;DHT22;64625;50.882;4.376;2023-03-14T05:08:24;10.70;99.90
37984;DHT22;64625;50.882;4.376;2023-03-14T05:10:57;10.60;99.90
37984;DHT22;64625;50.882;4.376;2023-03-14T05:13:23;10.60;99.90
37984;DHT22;64625;50.882;4.376;2023-03-14T05:15:49;10.60;99.90
37984;DHT22;64625;50.882;4.376;2023-03-14T05:18:21;10.60;99.90
37984;DHT22;64625;50.882;4.376;2023-03-14T05:20:50;10.60;99.90
37984;DHT22;64625;50.882;4.376;2023-03-14T05:23:17;10.60;99.90
37984;DHT22;64625;50.882;4.376;2023-03-14T05:25:43;10.60;99.90
37984;DHT22;64625;50.882;4.376;2023-03-14T05:28:09;10.60;99.90
37984;DHT22;64625;50.882;4.376;2023-03-14T05:30:35;10.60;99.90
37984;DHT22;64625;50.882;4.376;2023-03-14T05:33:01;10.60;99.90
37984;DHT22;64625;50.882;4.376;2023-03-14T05:35:27;10.60;99.90
37984;DHT22;64625;50.882;4.376;2023-03-14T05:37:53;10.60;99.90
37984;DHT22;64625;50.882;4.376;2023-03-14T05:40:18;10.60;99.90
37984;DHT22;64625;50.882;4.376;2023-03-14T05:42:44;10.60;99.90
37984;DHT22;64625;50.882;4.376;2023-03-14T05:45:11;10.60;99.90
37984;DHT22;64625;50.882;4.376;2023-03-14T05:47:36;10.60;99.90
37984;DHT22;64625;50.882;4.376;2023-03-14T05:50:05;10.60;99.90
37984;DHT22;64625;50.882;4.376;2023-03-14T05:52:31;10.60;99.90
37984;DHT22;64625;50.882;4.376;2023-03-14T05:54:57;10.60;99.90
37984;DHT22;64625;50.882;4.376;2023-03-14T05:57:23;10.60;99.90
37984;DHT22;64625;50.882;4.376;2023-03-14T05:59:49;10.60;99.90
37984;DHT22;64625;50.882;4.376;2023-03-14T06:02:14;10.60;99.90
37984;DHT22;64625;50.882;4.376;2023-03-14T06:04:40;10.60;99.90
37984;DHT22;64625;50.882;4.376;2023-03-14T06:07:06;10.60;99.90
37984;DHT22;64625;50.882;4.376;2023-03-14T06:09:34;10.60;99.90
37984;DHT22;64625;50.882;4.376;2023-03-14T06:12:00;10.60;99.90
37984;DHT22;64625;50.882;4.376;2023-03-14T06:14:25;10.60;99.90
37984;DHT22;64625;50.882;4.376;2023-03-14T06:16:51;10.60;99.90
37984;DHT22;64625;50.882;4.376;2023-03-14T06:19:18;10.60;99.90
37984;DHT22;64625;50.882;4.376;2023-03-14T06:21:44;10.60;99.90
37984;DHT22;64625;50.882;4.376;2023-03-14T06:24:13;10.60;99.90
37984;DHT22;64625;50.882;4.376;2023-03-14T06:26:38;10.60;99.90
37984;DHT22;64625;50.882;4.376;2023-03-14T06:29:04;10.60;99.90
37984;DHT22;64625;50.882;4.376;2023-03-14T06:31:31;10.60;99.90
37984;DHT22;64625;50.882;4.376;2023-03-14T06:33:57;10.50;99.90
37984;DHT22;64625;50.882;4.376;2023-03-14T06:36:23;10.50;99.90
37984;DHT22;64625;50.882;4.376;2023-03-14T06:38:49;10.50;99.90
37984;DHT22;64625;50.882;4.376;2023-03-14T06:41:15;10.50;99.90
37984;DHT22;64625;50.882;4.376;2023-03-14T06:43:40;10.40;99.90
37984;DHT22;64625;50.882;4.376;2023-03-14T06:46:07;10.40;99.90
37984;DHT22;64625;50.882;4.376;2023-03-14T06:48:32;10.40;99.90
37984;DHT22;64625;50.882;4.376;2023-03-14T06:50:58;10.40;99.90
37984;DHT22;64625;50.882;4.376;2023-03-14T06:53:24;10.30;99.90
37984;DHT22;64625;50.882;4.376;2023-03-14T06:55:50;10.20;99.90
37984;DHT22;64625;50.882;4.376;2023-03-14T06:58:16;10.20;99.90
37984;DHT22;64625;50.882;4.376;2023-03-14T07:00:42;10.10;99.90
37984;DHT22;64625;50.882;4.376;2023-03-14T07:03:09;10.00;99.90
37984;DHT22;64625;50.882;4.376;2023-03-14T07:05:36;9.90;99.90
37984;DHT22;64625;50.882;4.376;2023-03-14T07:08:01;9.80;99.90
37984;DHT22;64625;50.882;4.376;2023-03-14T07:10:28;9.70;99.90
37984;DHT22;64625;50.882;4.376;2023-03-14T07:12:56;9.60;99.90
37984;DHT22;64625;50.882;4.376;2023-03-14T07:15:22;9.50;99.90
37984;DHT22;64625;50.882;4.376;2023-03-14T07:17:48;9.40;99.90
37984;DHT22;64625;50.882;4.376;2023-03-14T07:20:14;9.30;99.90
37984;DHT22;64625;50.882;4.376;2023-03-14T07:22:40;9.20;99.90
37984;DHT22;64625;50.882;4.376;2023-03-14T07:25:06;9.10;99.90
37984;DHT22;64625;50.882;4.376;2023-03-14T07:27:32;9.00;99.90
37984;DHT22;64625;50.882;4.376;2023-03-14T07:29:59;8.90;99.90
37984;DHT22;64625;50.882;4.376;2023-03-14T07:32:25;8.90;99.90
37984;DHT22;64625;50.882;4.376;2023-03-14T07:34:51;8.80;99.90
37984;DHT22;64625;50.882;4.376;2023-03-14T07:37:16;8.80;99.90
37984;DHT22;64625;50.882;4.376;2023-03-14T07:39:42;8.70;99.90
37984;DHT22;64625;50.882;4.376;2023-03-14T07:42:08;8.70;99.90
37984;DHT22;64625;50.882;4.376;2023-03-14T07:44:34;8.60;99.90
37984;DHT22;64625;50.882;4.376;2023-03-14T07:47:02;8.60;99.90
37984;DHT22;64625;50.882;4.376;2023-03-14T07:49:28;8.60;99.90
37984;DHT22;64625;50.882;4.376;2023-03-14T07:51:54;8.50;99.90
37984;DHT22;64625;50.882;4.376;2023-03-14T07:54:20;8.60;99.90
37984;DHT22;64625;50.882;4.376;2023-03-14T07:56:46;8.50;99.90
37984;DHT22;64625;50.882;4.376;2023-03-14T07:59:12;8.50;99.90
37984;DHT22;64625;50.882;4.376;2023-03-14T08:01:38;8.50;99.90
37984;DHT22;64625;50.882;4.376;2023-03-14T08:04:04;8.50;99.90
37984;DHT22;64625;50.882;4.376;2023-03-14T08:06:30;8.50;99.90
37984;DHT22;64625;50.882;4.376;2023-03-14T08:08:55;8.40;99.90
37984;DHT22;64625;50.882;4.376;2023-03-14T08:11:21;8.40;99.90
37984;DHT22;64625;50.882;4.376;2023-03-14T08:13:47;8.40;99.90
37984;DHT22;64625;50.882;4.376;2023-03-14T08:16:16;8.40;99.90
37984;DHT22;64625;50.882;4.376;2023-03-14T08:18:43;8.30;99.90
37984;DHT22;64625;50.882;4.376;2023-03-14T08:21:09;8.40;99.90
37984;DHT22;64625;50.882;4.376;2023-03-14T08:23:35;8.30;99.90
37984;DHT22;64625;50.882;4.376;2023-03-14T08:26:01;8.30;99.90
37984;DHT22;64625;50.882;4.376;2023-03-14T08:28:27;8.30;99.90
37984;DHT22;64625;50.882;4.376;2023-03-14T08:31:00;8.30;99.90
37984;DHT22;64625;50.882;4.376;2023-03-14T08:33:27;8.30;99.90
37984;DHT22;64625;50.882;4.376;2023-03-14T08:35:58;8.30;99.90
37984;DHT22;64625;50.882;4.376;2023-03-14T08:38:25;8.30;99.90
37984;DHT22;64625;50.882;4.376;2023-03-14T08:40:58;8.30;99.90
37984;DHT22;64625;50.882;4.376;2023-03-14T08:43:25;8.30;99.90
37984;DHT22;64625;50.882;4.376;2023-03-14T08:45:51;8.30;99.90
37984;DHT22;64625;50.882;4.376;2023-03-14T08:48:17;8.30;99.90
37984;DHT22;64625;50.882;4.376;2023-03-14T08:50:43;8.30;99.90
37984;DHT22;64625;50.882;4.376;2023-03-14T08:53:09;8.30;99.90
37984;DHT22;64625;50.882;4.376;2023-03-14T08:55:35;8.30;99.90
37984;DHT22;64625;50.882;4.376;2023-03-14T08:58:01;8.20;99.90
37984;DHT22;64625;50.882;4.376;2023-03-14T09:00:27;8.20;99.90
37984;DHT22;64625;50.882;4.376;2023-03-14T09:02:53;8.10;99.90
37984;DHT22;64625;50.882;4.376;2023-03-14T09:05:19;8.10;99.90
37984;DHT22;64625;50.882;4.376;2023-03-14T09:07:44;8.10;99.90
37984;DHT22;64625;50.882;4.376;2023-03-14T09:10:10;8.10;99.90
37984;DHT22;64625;50.882;4.376;2023-03-14T09:12:36;8.10;99.90
37984;DHT22;64625;50.882;4.376;2023-03-14T09:15:02;8.00;99.90
37984;DHT22;64625;50.882;4.376;2023-03-14T09:17:29;8.00;99.90
37984;DHT22;64625;50.882;4.376;2023-03-14T09:19:55;7.90;99.90
37984;DHT22;64625;50.882;4.376;2023-03-14T09:22:21;7.90;99.90
37984;DHT22;64625;50.882;4.376;2023-03-14T09:24:47;7.90;99.90
37984;DHT22;64625;50.882;4.376;2023-03-14T09:27:13;7.90;99.90
37984;DHT22;64625;50.882;4.376;2023-03-14T09:29:38;7.90;99.90
37984;DHT22;64625;50.882;4.376;2023-03-14T09:32:04;7.80;99.90
37984;DHT22;64625;50.882;4.376;2023-03-14T09:34:33;7.80;99.90
37984;DHT22;64625;50.882;4.376;2023-03-14T09:37:00;7.80;99.90
37984;DHT22;64625;50.882;4.376;2023-03-14T09:39:26;7.80;99.90
37984;DHT22;64625;50.882;4.376;2023-03-14T09:41:53;7.80;99.90
37984;DHT22;64625;50.882;4.376;2023-03-14T09:44:27;7.80;99.90
37984;DHT22;64625;50.882;4.376;2023-03-14T09:47:06;7.80;99.90
37984;DHT22;64625;50.882;4.376;2023-03-14T09:49:35;7.70;99.90
37984;DHT22;64625;50.882;4.376;2023-03-14T09:52:16;7.70;99.90
37984;DHT22;64625;50.882;4.376;2023-03-14T09:55:22;7.70;99.90
37984;DHT22;64625;50.882;4.376;2023-03-14T09:57:41;7.70;99.90
37984;DHT22;64625;50.882;4.376;2023-03-14T10:00:29;7.70;99.90
37984;DHT22;64625;50.882;4.376;2023-03-14T10:03:26;7.70;99.90
37984;DHT22;64625;50.882;4.376;2023-03-14T10:05:55;7.70;99.90
37984;DHT22;64625;50.882;4.376;2023-03-14T10:08:21;7.70;99.90
37984;DHT22;64625;50.882;4.376;2023-03-14T10:10:47;7.70;99.90
37984;DHT22;64625;50.882;4.376;2023-03-14T10:13:24;7.70;99.90
37984;DHT22;64625;50.882;4.376;2023-03-14T10:16:03;7.80;99.90
37984;DHT22;64625;50.882;4.376;2023-03-14T10:18:32;7.80;99.90
37984;DHT22;64625;50.882;4.376;2023-03-14T10:21:06;7.90;99.90
37984;DHT22;64625;50.882;4.376;2023-03-14T10:23:33;7.80;99.90
37984;DHT22;64625;50.882;4.376;2023-03-14T10:29:02;7.70;99.90
37984;DHT22;64625;50.882;4.376;2023-03-14T10:31:52;7.70;99.90
37984;DHT22;64625;50.882;4.376;2023-03-14T10:34:30;7.70;99.90
37984;DHT22;64625;50.882;4.376;2023-03-14T10:36:59;7.70;99.90
37984;DHT22;64625;50.882;4.376;2023-03-14T10:40:12;7.70;99.90
37984;DHT22;64625;50.882;4.376;2023-03-14T10:42:34;7.60;99.90
37984;DHT22;64625;50.882;4.376;2023-03-14T10:45:28;7.60;99.90
37984;DHT22;64625;50.882;4.376;2023-03-14T10:47:52;7.60;99.90
37984;DHT22;64625;50.882;4.376;2023-03-14T10:52:52;7.50;99.90
37984;DHT22;64625;50.882;4.376;2023-03-14T10:55:18;7.50;99.90
37984;DHT22;64625;50.882;4.376;2023-03-14T10:57:44;7.50;99.90
37984;DHT22;64625;50.882;4.376;2023-03-14T11:00:21;7.50;99.90
37984;DHT22;64625;50.882;4.376;2023-03-14T11:03:07;7.50;99.90
37984;DHT22;64625;50.882;4.376;2023-03-14T11:08:44;7.40;99.90
37984;DHT22;64625;50.882;4.376;2023-03-14T11:11:23;7.40;99.90
37984;DHT22;64625;50.882;4.376;2023-03-14T11:19:53;7.40;99.90
37984;DHT22;64625;50.882;4.376;2023-03-14T11:22:41;7.30;99.90
37984;DHT22;64625;50.882;4.376;2023-03-14T11:30:37;7.30;99.90
37984;DHT22;64625;50.882;4.376;2023-03-14T11:33:14;7.30;99.90
37984;DHT22;64625;50.882;4.376;2023-03-14T11:35:57;7.20;99.90
37984;DHT22;64625;50.882;4.376;2023-03-14T11:41:04;7.30;99.90
37984;DHT22;64625;50.882;4.376;2023-03-14T11:43:38;7.30;99.90
37984;DHT22;64625;50.882;4.376;2023-03-14T11:46:35;7.30;99.90
37984;DHT22;64625;50.882;4.376;2023-03-14T11:51:46;7.30;99.90
37984;DHT22;64625;50.882;4.376;2023-03-14T11:57:10;7.20;99.90
37984;DHT22;64625;50.882;4.376;2023-03-14T11:59:48;7.10;99.90
37984;DHT22;64625;50.882;4.376;2023-03-14T12:10:39;7.10;99.90
37984;DHT22;64625;50.882;4.376;2023-03-14T12:13:08;7.10;99.90
37984;DHT22;64625;50.882;4.376;2023-03-14T12:15:40;7.10;99.90
37984;DHT22;64625;50.882;4.376;2023-03-14T12:18:20;7.10;99.90
37984;DHT22;64625;50.882;4.376;2023-03-14T12:20:58;7.20;99.90
37984;DHT22;64625;50.882;4.376;2023-03-14T12:23:26;7.20;99.90
37984;DHT22;64625;50.882;4.376;2023-03-14T12:26:15;7.20;99.90
37984;DHT22;64625;50.882;4.376;2023-03-14T12:32:07;7.20;99.90
37984;DHT22;64625;50.882;4.376;2023-03-14T12:34:41;7.20;99.90
37984;DHT22;64625;50.882;4.376;2023-03-14T12:37:35;7.20;99.90
37984;DHT22;64625;50.882;4.376;2023-03-14T12:43:01;7.10;99.90
37984;DHT22;64625;50.882;4.376;2023-03-14T12:45:29;7.10;99.90
37984;DHT22;64625;50.882;4.376;2023-03-14T12:48:21;7.10;99.90
37984;DHT22;64625;50.882;4.376;2023-03-14T12:51:05;7.10;99.90
37984;DHT22;64625;50.882;4.376;2023-03-14T12:53:55;7.10;99.90
37984;DHT22;64625;50.882;4.376;2023-03-14T12:56:53;7.10;99.90
37984;DHT22;64625;50.882;4.376;2023-03-14T12:59:56;7.10;99.90
37984;DHT22;64625;50.882;4.376;2023-03-14T13:05:24;7.10;99.90
37984;DHT22;64625;50.882;4.376;2023-03-14T13:10:22;7.10;99.90
37984;DHT22;64625;50.882;4.376;2023-03-14T13:12:51;7.10;99.90
37984;DHT22;64625;50.882;4.376;2023-03-14T13:15:24;7.10;99.90
37984;DHT22;64625;50.882;4.376;2023-03-14T13:17:54;7.10;99.90
37984;DHT22;64625;50.882;4.376;2023-03-14T13:20:33;7.10;99.90
37984;DHT22;64625;50.882;4.376;2023-03-14T13:22:59;7.10;99.90
37984;DHT22;64625;50.882;4.376;2023-03-14T13:25:30;7.10;99.90
37984;DHT22;64625;50.882;4.376;2023-03-14T13:27:57;7.10;99.90
37984;DHT22;64625;50.882;4.376;2023-03-14T13:32:51;7.10;99.90
37984;DHT22;64625;50.882;4.376;2023-03-14T13:35:24;7.10;99.90
37984;DHT22;64625;50.882;4.376;2023-03-14T13:38:01;7.10;99.90
37984;DHT22;64625;50.882;4.376;2023-03-14T13:40:33;7.10;99.90
37984;DHT22;64625;50.882;4.376;2023-03-14T13:43:03;7.10;99.90
37984;DHT22;64625;50.882;4.376;2023-03-14T13:45:30;7.20;99.90
37984;DHT22;64625;50.882;4.376;2023-03-14T13:47:55;7.20;99.90
37984;DHT22;64625;50.882;4.376;2023-03-14T13:50:21;7.20;99.90
37984;DHT22;64625;50.882;4.376;2023-03-14T13:52:55;7.20;99.90
37984;DHT22;64625;50.882;4.376;2023-03-14T13:55:23;7.30;99.90
37984;DHT22;64625;50.882;4.376;2023-03-14T13:57:53;7.30;99.90
37984;DHT22;64625;50.882;4.376;2023-03-14T14:00:27;7.30;99.90
37984;DHT22;64625;50.882;4.376;2023-03-14T14:02:56;7.40;99.90
37984;DHT22;64625;50.882;4.376;2023-03-14T14:05:27;7.40;99.90
37984;DHT22;64625;50.882;4.376;2023-03-14T14:07:53;7.50;99.90
37984;DHT22;64625;50.882;4.376;2023-03-14T14:10:20;7.50;99.90
37984;DHT22;64625;50.882;4.376;2023-03-14T14:13:01;7.50;99.90
37984;DHT22;64625;50.882;4.376;2023-03-14T14:15:28;7.50;99.90
37984;DHT22;64625;50.882;4.376;2023-03-14T14:18:10;7.60;99.90
37984;DHT22;64625;50.882;4.376;2023-03-14T14:20:42;7.60;99.90
37984;DHT22;64625;50.882;4.376;2023-03-14T14:23:21;7.60;99.90
37984;DHT22;64625;50.882;4.376;2023-03-14T14:25:55;7.60;99.90
37984;DHT22;64625;50.882;4.376;2023-03-14T14:28:34;7.60;99.90
37984;DHT22;64625;50.882;4.376;2023-03-14T14:31:17;7.50;99.90
37984;DHT22;64625;50.882;4.376;2023-03-14T14:33:57;7.50;99.90
37984;DHT22;64625;50.882;4.376;2023-03-14T14:39:38;7.40;99.90
37984;DHT22;64625;50.882;4.376;2023-03-14T14:41:42;7.30;99.90
37984;DHT22;64625;50.882;4.376;2023-03-14T14:44:13;7.30;99.90
37984;DHT22;64625;50.882;4.376;2023-03-14T14:46:42;7.20;99.90
37984;DHT22;64625;50.882;4.376;2023-03-14T14:49:14;7.20;99.90
37984;DHT22;64625;50.882;4.376;2023-03-14T14:51:48;7.10;99.90
37984;DHT22;64625;50.882;4.376;2023-03-14T14:54:32;7.00;99.90
37984;DHT22;64625;50.882;4.376;2023-03-14T14:57:04;6.90;99.90
37984;DHT22;64625;50.882;4.376;2023-03-14T14:59:30;6.80;99.90
37984;DHT22;64625;50.882;4.376;2023-03-14T15:02:02;6.70;99.90
37984;DHT22;64625;50.882;4.376;2023-03-14T15:04:31;6.60;99.90
37984;DHT22;64625;50.882;4.376;2023-03-14T15:06:57;6.50;99.90
37984;DHT22;64625;50.882;4.376;2023-03-14T15:09:23;6.50;99.90
37984;DHT22;64625;50.882;4.376;2023-03-14T15:11:49;6.50;99.90
37984;DHT22;64625;50.882;4.376;2023-03-14T15:14:15;6.50;99.90
37984;DHT22;64625;50.882;4.376;2023-03-14T15:16:42;6.50;99.90
37984;DHT22;64625;50.882;4.376;2023-03-14T15:19:23;6.50;99.90
37984;DHT22;64625;50.882;4.376;2023-03-14T15:21:50;6.50;99.90
37984;DHT22;64625;50.882;4.376;2023-03-14T15:24:16;6.50;99.90
37984;DHT22;64625;50.882;4.376;2023-03-14T15:26:42;6.50;99.90
37984;DHT22;64625;50.882;4.376;2023-03-14T15:29:11;6.50;99.90
37984;DHT22;64625;50.882;4.376;2023-03-14T15:31:41;6.60;99.90
37984;DHT22;64625;50.882;4.376;2023-03-14T15:34:12;6.60;99.90
37984;DHT22;64625;50.882;4.376;2023-03-14T15:36:38;6.60;99.90
37984;DHT22;64625;50.882;4.376;2023-03-14T15:39:05;6.70;99.90
37984;DHT22;64625;50.882;4.376;2023-03-14T15:41:32;6.70;99.90
37984;DHT22;64625;50.882;4.376;2023-03-14T15:43:58;6.70;99.90
37984;DHT22;64625;50.882;4.376;2023-03-14T15:46:24;6.80;99.90
37984;DHT22;64625;50.882;4.376;2023-03-14T15:48:51;6.80;99.90
37984;DHT22;64625;50.882;4.376;2023-03-14T15:51:20;6.80;99.90
37984;DHT22;64625;50.882;4.376;2023-03-14T15:53:46;6.80;99.90
37984;DHT22;64625;50.882;4.376;2023-03-14T15:56:14;6.80;99.90
37984;DHT22;64625;50.882;4.376;2023-03-14T15:58:41;6.80;99.90
37984;DHT22;64625;50.882;4.376;2023-03-14T16:01:08;6.80;99.90
37984;DHT22;64625;50.882;4.376;2023-03-14T16:03:36;6.80;99.90
37984;DHT22;64625;50.882;4.376;2023-03-14T16:06:29;6.80;99.90
37984;DHT22;64625;50.882;4.376;2023-03-14T16:08:56;6.80;99.90
37984;DHT22;64625;50.882;4.376;2023-03-14T16:11:22;6.80;99.90
37984;DHT22;64625;50.882;4.376;2023-03-14T16:13:48;6.80;99.90
37984;DHT22;64625;50.882;4.376;2023-03-14T16:16:14;6.80;99.90
37984;DHT22;64625;50.882;4.376;2023-03-14T16:18:40;6.80;99.90
37984;DHT22;64625;50.882;4.376;2023-03-14T16:21:12;6.70;99.90
37984;DHT22;64625;50.882;4.376;2023-03-14T16:23:38;6.80;99.90
37984;DHT22;64625;50.882;4.376;2023-03-14T16:26:07;6.70;99.90
37984;DHT22;64625;50.882;4.376;2023-03-14T16:28:34;6.80;99.90
37984;DHT22;64625;50.882;4.376;2023-03-14T16:31:06;6.80;99.90
37984;DHT22;64625;50.882;4.376;2023-03-14T16:33:33;6.70;99.90
37984;DHT22;64625;50.882;4.376;2023-03-14T16:36:02;6.80;99.90
37984;DHT22;64625;50.882;4.376;2023-03-14T16:38:34;6.80;99.90
37984;DHT22;64625;50.882;4.376;2023-03-14T16:41:19;6.80;99.90
37984;DHT22;64625;50.882;4.376;2023-03-14T16:43:46;6.70;99.90
37984;DHT22;64625;50.882;4.376;2023-03-14T16:46:17;6.70;99.90
37984;DHT22;64625;50.882;4.376;2023-03-14T16:48:43;6.80;99.90
37984;DHT22;64625;50.882;4.376;2023-03-14T16:51:11;6.80;99.90
37984;DHT22;64625;50.882;4.376;2023-03-14T16:53:37;6.80;99.90
37984;DHT22;64625;50.882;4.376;2023-03-14T16:56:04;6.80;99.90